Murrieta, CA (92563)

2:45 PM PDT on August 31, 2015 (GMT -0700)
Los Alamos and Whitewood | | Change Station
CLOSE
Current Station
Personal Weather Station
Location: Murrieta, CA
Elevation: 1243 ft
Nearby Weather Stations

Elev 1243 ft 33.57 °N, 117.18 °W | Updated 3 seconds ago

Clear
Clear
89.2 °F
Feels Like 88 °F
N
5.8
Wind Variable Wind from ESE
Gusts 5.8 mph

Today
High -- | Low -- °F
--% Chance of Precip.
Yesterday
High -- | Low -- °F
Precip. -- in
6:21 AM 7:15 PM
Waning Gibbous, 93% visible
Pressure 29.89 in
Visibility 10.0 miles
Clouds Clear
Heat Index 88 °F
Dew Point 58 °F
Humidity 35%
Rainfall in
Snow Depth Not available.
UV 9 out of 12
Pollen 6.20 out of 12
Air Quality Not available.
Flu Activity Not available.
METAR KF70 312135Z AUTO 22010KT 10SM CLR 30/11 A2989 RMK AO1
Pressure 29.89 in
Visibility 10.0 miles
Clouds Clear
Heat Index 88 °F
Dew Point 58 °F
Humidity 35%
Rainfall in
Snow Depth Not available.
UV 9 out of 12
Pollen 6.20 out of 12
Air Quality Not available.
Flu Activity Not available.
METAR KF70 312135Z AUTO 22010KT 10SM CLR 30/11 A2989 RMK AO1

10-Day Weather Forecast

×

Almanac

Astronomy

Aug. 31, 2015 Rise Set
Actual Time
Civil Twilight
Nautical Twilight
Astronomical Twilight
Moon
Length of Visible Light
Length of Day
Tomorrow will be .
, % of the Moon is Illuminated

Today's Extremes

State Highs State Lows

Community

WunderPhotos

Upload Photos

1,851,377 photos uploaded!

WunderBlogs® & News

Nearby

Air Quality

  Air Quality AQ Index Pollutant
Not available.

Snow Depth

Station Depth Elevation

Earthquake Activity

City Distance Mag. Time & Date
Minimum magnitude displayed is 2.5.

Coastal Water Temperatures

Place Temperature

Stations

Nearby Weather Stations

Station Location Temp. Windchill Dew Point Humidity Wind Precip. Elev Updated Type